sensor_id;sensor_type;location;lat;lon;timestamp;P1;durP1;ratioP1;P2;durP2;ratioP2
50249;SDS011;36133;42.522;27.456;2023-03-05T00:01:59;130.68;;;64.53;;
50249;SDS011;36133;42.522;27.456;2023-03-05T00:04:25;128.07;;;62.38;;
50249;SDS011;36133;42.522;27.456;2023-03-05T00:06:50;129.32;;;63.13;;
50249;SDS011;36133;42.522;27.456;2023-03-05T00:09:16;134.60;;;64.45;;
50249;SDS011;36133;42.522;27.456;2023-03-05T00:11:41;133.50;;;64.55;;
50249;SDS011;36133;42.522;27.456;2023-03-05T00:14:08;131.93;;;61.58;;
50249;SDS011;36133;42.522;27.456;2023-03-05T00:16:34;131.27;;;60.78;;
50249;SDS011;36133;42.522;27.456;2023-03-05T00:19:00;130.50;;;57.97;;
50249;SDS011;36133;42.522;27.456;2023-03-05T00:21:33;114.18;;;53.92;;
50249;SDS011;36133;42.522;27.456;2023-03-05T00:24:05;114.18;;;56.42;;
50249;SDS011;36133;42.522;27.456;2023-03-05T00:26:36;113.18;;;57.28;;
50249;SDS011;36133;42.522;27.456;2023-03-05T00:29:03;116.25;;;58.20;;
50249;SDS011;36133;42.522;27.456;2023-03-05T00:31:30;115.15;;;59.10;;
50249;SDS011;36133;42.522;27.456;2023-03-05T00:33:59;115.18;;;56.92;;
50249;SDS011;36133;42.522;27.456;2023-03-05T00:36:38;130.30;;;62.70;;
50249;SDS011;36133;42.522;27.456;2023-03-05T00:39:04;129.45;;;62.90;;
50249;SDS011;36133;42.522;27.456;2023-03-05T00:41:30;122.85;;;60.38;;
50249;SDS011;36133;42.522;27.456;2023-03-05T00:43:55;121.90;;;62.47;;
50249;SDS011;36133;42.522;27.456;2023-03-05T00:46:21;135.27;;;63.45;;
50249;SDS011;36133;42.522;27.456;2023-03-05T00:48:47;121.50;;;59.45;;
50249;SDS011;36133;42.522;27.456;2023-03-05T00:51:13;124.80;;;59.85;;
50249;SDS011;36133;42.522;27.456;2023-03-05T00:53:38;121.53;;;58.97;;
50249;SDS011;36133;42.522;27.456;2023-03-05T00:56:04;127.45;;;60.03;;
50249;SDS011;36133;42.522;27.456;2023-03-05T00:58:30;127.55;;;60.55;;
50249;SDS011;36133;42.522;27.456;2023-03-05T01:00:59;123.72;;;58.75;;
50249;SDS011;36133;42.522;27.456;2023-03-05T01:03:25;126.22;;;62.03;;
50249;SDS011;36133;42.522;27.456;2023-03-05T01:05:51;124.53;;;61.67;;
50249;SDS011;36133;42.522;27.456;2023-03-05T01:08:16;136.75;;;65.05;;
50249;SDS011;36133;42.522;27.456;2023-03-05T01:10:42;150.02;;;69.53;;
50249;SDS011;36133;42.522;27.456;2023-03-05T01:13:07;153.55;;;73.57;;
50249;SDS011;36133;42.522;27.456;2023-03-05T01:15:33;153.27;;;69.97;;
50249;SDS011;36133;42.522;27.456;2023-03-05T01:17:59;155.23;;;68.38;;
50249;SDS011;36133;42.522;27.456;2023-03-05T01:20:24;142.00;;;66.93;;
50249;SDS011;36133;42.522;27.456;2023-03-05T01:22:50;161.77;;;71.00;;
50249;SDS011;36133;42.522;27.456;2023-03-05T01:25:15;156.38;;;71.93;;
50249;SDS011;36133;42.522;27.456;2023-03-05T01:27:41;174.18;;;75.45;;
50249;SDS011;36133;42.522;27.456;2023-03-05T01:30:07;173.57;;;75.43;;
50249;SDS011;36133;42.522;27.456;2023-03-05T01:32:34;205.98;;;91.55;;
50249;SDS011;36133;42.522;27.456;2023-03-05T01:35:00;171.23;;;75.85;;
50249;SDS011;36133;42.522;27.456;2023-03-05T01:37:27;152.02;;;66.05;;
50249;SDS011;36133;42.522;27.456;2023-03-05T01:39:52;151.77;;;66.07;;
50249;SDS011;36133;42.522;27.456;2023-03-05T01:42:18;153.48;;;64.18;;
50249;SDS011;36133;42.522;27.456;2023-03-05T01:47:43;147.70;;;61.20;;
50249;SDS011;36133;42.522;27.456;2023-03-05T01:50:13;137.60;;;60.05;;
50249;SDS011;36133;42.522;27.456;2023-03-05T01:52:43;150.65;;;62.65;;
50249;SDS011;36133;42.522;27.456;2023-03-05T01:55:17;144.68;;;61.50;;
50249;SDS011;36133;42.522;27.456;2023-03-05T01:58:04;135.23;;;58.97;;
50249;SDS011;36133;42.522;27.456;2023-03-05T02:00:34;138.45;;;60.10;;
50249;SDS011;36133;42.522;27.456;2023-03-05T02:03:06;139.68;;;61.03;;
50249;SDS011;36133;42.522;27.456;2023-03-05T02:05:35;138.52;;;60.42;;
50249;SDS011;36133;42.522;27.456;2023-03-05T02:08:03;126.05;;;57.63;;
50249;SDS011;36133;42.522;27.456;2023-03-05T02:10:35;135.90;;;60.97;;
50249;SDS011;36133;42.522;27.456;2023-03-05T02:13:06;130.68;;;59.00;;
50249;SDS011;36133;42.522;27.456;2023-03-05T02:15:34;132.13;;;58.75;;
50249;SDS011;36133;42.522;27.456;2023-03-05T02:18:01;140.95;;;60.45;;
50249;SDS011;36133;42.522;27.456;2023-03-05T02:20:28;125.63;;;56.97;;
50249;SDS011;36133;42.522;27.456;2023-03-05T02:23:06;133.75;;;58.92;;
50249;SDS011;36133;42.522;27.456;2023-03-05T02:25:31;130.45;;;57.30;;
50249;SDS011;36133;42.522;27.456;2023-03-05T02:28:19;141.00;;;61.78;;
50249;SDS011;36133;42.522;27.456;2023-03-05T02:30:47;138.68;;;61.13;;
50249;SDS011;36133;42.522;27.456;2023-03-05T02:33:13;148.13;;;64.70;;
50249;SDS011;36133;42.522;27.456;2023-03-05T02:35:39;147.32;;;62.83;;
50249;SDS011;36133;42.522;27.456;2023-03-05T02:38:07;142.52;;;63.50;;
50249;SDS011;36133;42.522;27.456;2023-03-05T02:40:33;142.23;;;61.33;;
50249;SDS011;36133;42.522;27.456;2023-03-05T02:42:59;148.75;;;62.35;;
50249;SDS011;36133;42.522;27.456;2023-03-05T02:45:24;140.20;;;60.55;;
50249;SDS011;36133;42.522;27.456;2023-03-05T02:47:50;138.13;;;60.58;;
50249;SDS011;36133;42.522;27.456;2023-03-05T02:50:15;143.02;;;62.65;;
50249;SDS011;36133;42.522;27.456;2023-03-05T02:52:41;143.38;;;61.55;;
50249;SDS011;36133;42.522;27.456;2023-03-05T02:55:07;139.50;;;62.95;;
50249;SDS011;36133;42.522;27.456;2023-03-05T02:57:32;156.55;;;67.47;;
50249;SDS011;36133;42.522;27.456;2023-03-05T02:59:58;151.68;;;66.35;;
50249;SDS011;36133;42.522;27.456;2023-03-05T03:02:23;168.85;;;69.03;;
50249;SDS011;36133;42.522;27.456;2023-03-05T03:04:49;163.15;;;69.78;;
50249;SDS011;36133;42.522;27.456;2023-03-05T03:07:15;195.90;;;85.22;;
50249;SDS011;36133;42.522;27.456;2023-03-05T03:09:40;204.18;;;92.70;;
50249;SDS011;36133;42.522;27.456;2023-03-05T03:12:09;180.00;;;81.03;;
50249;SDS011;36133;42.522;27.456;2023-03-05T03:14:36;185.43;;;83.65;;
50249;SDS011;36133;42.522;27.456;2023-03-05T03:17:08;191.38;;;80.13;;
50249;SDS011;36133;42.522;27.456;2023-03-05T03:19:36;182.40;;;79.15;;
50249;SDS011;36133;42.522;27.456;2023-03-05T03:22:02;184.65;;;77.43;;
50249;SDS011;36133;42.522;27.456;2023-03-05T03:24:29;171.27;;;72.72;;
50249;SDS011;36133;42.522;27.456;2023-03-05T03:26:55;184.30;;;73.13;;
50249;SDS011;36133;42.522;27.456;2023-03-05T03:29:20;176.98;;;70.95;;
50249;SDS011;36133;42.522;27.456;2023-03-05T03:31:46;176.18;;;73.15;;
50249;SDS011;36133;42.522;27.456;2023-03-05T03:34:12;199.93;;;77.15;;
50249;SDS011;36133;42.522;27.456;2023-03-05T03:36:40;189.57;;;78.43;;
50249;SDS011;36133;42.522;27.456;2023-03-05T03:39:06;188.32;;;75.32;;
50249;SDS011;36133;42.522;27.456;2023-03-05T03:41:34;180.77;;;73.78;;
50249;SDS011;36133;42.522;27.456;2023-03-05T03:44:00;182.55;;;75.18;;
50249;SDS011;36133;42.522;27.456;2023-03-05T03:46:27;180.45;;;72.18;;
50249;SDS011;36133;42.522;27.456;2023-03-05T03:48:53;181.13;;;72.20;;
50249;SDS011;36133;42.522;27.456;2023-03-05T03:51:18;178.30;;;72.70;;
50249;SDS011;36133;42.522;27.456;2023-03-05T03:53:44;179.85;;;72.70;;
50249;SDS011;36133;42.522;27.456;2023-03-05T03:56:09;178.10;;;72.30;;
50249;SDS011;36133;42.522;27.456;2023-03-05T03:58:35;188.43;;;78.22;;
50249;SDS011;36133;42.522;27.456;2023-03-05T04:01:00;183.15;;;77.25;;
50249;SDS011;36133;42.522;27.456;2023-03-05T04:03:26;180.60;;;73.05;;
50249;SDS011;36133;42.522;27.456;2023-03-05T04:05:51;204.50;;;84.28;;
50249;SDS011;36133;42.522;27.456;2023-03-05T04:08:17;206.20;;;87.53;;
50249;SDS011;36133;42.522;27.456;2023-03-05T04:10:42;203.48;;;85.90;;
50249;SDS011;36133;42.522;27.456;2023-03-05T04:13:08;207.68;;;85.07;;
50249;SDS011;36133;42.522;27.456;2023-03-05T04:15:33;198.88;;;80.43;;
50249;SDS011;36133;42.522;27.456;2023-03-05T04:17:59;204.27;;;86.60;;
50249;SDS011;36133;42.522;27.456;2023-03-05T04:20:24;202.63;;;83.13;;
50249;SDS011;36133;42.522;27.456;2023-03-05T04:22:50;168.10;;;68.70;;
50249;SDS011;36133;42.522;27.456;2023-03-05T04:25:15;172.05;;;72.97;;
50249;SDS011;36133;42.522;27.456;2023-03-05T04:27:41;187.07;;;76.10;;
50249;SDS011;36133;42.522;27.456;2023-03-05T04:30:07;173.27;;;71.47;;
50249;SDS011;36133;42.522;27.456;2023-03-05T04:32:35;168.85;;;75.07;;
50249;SDS011;36133;42.522;27.456;2023-03-05T04:35:01;164.40;;;66.50;;
50249;SDS011;36133;42.522;27.456;2023-03-05T04:37:26;162.23;;;67.72;;
50249;SDS011;36133;42.522;27.456;2023-03-05T04:39:52;180.40;;;71.60;;
50249;SDS011;36133;42.522;27.456;2023-03-05T04:42:18;177.68;;;70.75;;
50249;SDS011;36133;42.522;27.456;2023-03-05T04:44:46;182.52;;;70.15;;
50249;SDS011;36133;42.522;27.456;2023-03-05T04:47:12;192.85;;;75.18;;
50249;SDS011;36133;42.522;27.456;2023-03-05T04:49:38;175.48;;;70.90;;
50249;SDS011;36133;42.522;27.456;2023-03-05T04:52:03;177.70;;;74.43;;
50249;SDS011;36133;42.522;27.456;2023-03-05T04:54:29;178.10;;;74.82;;
50249;SDS011;36133;42.522;27.456;2023-03-05T04:56:54;180.00;;;74.13;;
50249;SDS011;36133;42.522;27.456;2023-03-05T04:59:20;190.18;;;72.18;;
50249;SDS011;36133;42.522;27.456;2023-03-05T05:01:45;188.50;;;75.93;;
50249;SDS011;36133;42.522;27.456;2023-03-05T05:04:11;179.88;;;68.13;;
50249;SDS011;36133;42.522;27.456;2023-03-05T05:06:36;170.23;;;70.15;;
50249;SDS011;36133;42.522;27.456;2023-03-05T05:09:02;175.30;;;69.50;;
50249;SDS011;36133;42.522;27.456;2023-03-05T05:11:28;172.25;;;72.22;;
50249;SDS011;36133;42.522;27.456;2023-03-05T05:13:53;178.48;;;72.07;;
50249;SDS011;36133;42.522;27.456;2023-03-05T05:16:19;185.65;;;71.30;;
50249;SDS011;36133;42.522;27.456;2023-03-05T05:18:44;188.98;;;73.65;;
50249;SDS011;36133;42.522;27.456;2023-03-05T05:21:10;214.90;;;76.85;;
50249;SDS011;36133;42.522;27.456;2023-03-05T05:23:38;208.40;;;78.55;;
50249;SDS011;36133;42.522;27.456;2023-03-05T05:26:05;246.13;;;91.95;;
50249;SDS011;36133;42.522;27.456;2023-03-05T05:28:32;302.77;;;120.55;;
50249;SDS011;36133;42.522;27.456;2023-03-05T05:30:58;248.57;;;93.90;;
50249;SDS011;36133;42.522;27.456;2023-03-05T05:33:24;239.77;;;93.22;;
50249;SDS011;36133;42.522;27.456;2023-03-05T05:35:50;253.77;;;100.20;;
50249;SDS011;36133;42.522;27.456;2023-03-05T05:38:16;216.02;;;89.90;;
50249;SDS011;36133;42.522;27.456;2023-03-05T05:40:42;235.07;;;98.00;;
50249;SDS011;36133;42.522;27.456;2023-03-05T05:43:07;210.35;;;88.70;;
50249;SDS011;36133;42.522;27.456;2023-03-05T05:45:33;208.95;;;84.07;;
50249;SDS011;36133;42.522;27.456;2023-03-05T05:47:58;211.73;;;88.15;;
50249;SDS011;36133;42.522;27.456;2023-03-05T05:50:24;203.93;;;86.97;;
50249;SDS011;36133;42.522;27.456;2023-03-05T05:52:51;198.10;;;83.72;;
50249;SDS011;36133;42.522;27.456;2023-03-05T05:55:16;176.45;;;78.30;;
50249;SDS011;36133;42.522;27.456;2023-03-05T05:57:42;193.88;;;83.65;;
50249;SDS011;36133;42.522;27.456;2023-03-05T06:00:08;181.20;;;79.25;;
50249;SDS011;36133;42.522;27.456;2023-03-05T06:02:40;177.80;;;76.18;;
50249;SDS011;36133;42.522;27.456;2023-03-05T06:05:06;160.88;;;74.18;;
50249;SDS011;36133;42.522;27.456;2023-03-05T06:07:34;153.95;;;72.03;;
50249;SDS011;36133;42.522;27.456;2023-03-05T06:10:00;142.40;;;71.35;;
50249;SDS011;36133;42.522;27.456;2023-03-05T06:12:25;135.18;;;66.38;;
50249;SDS011;36133;42.522;27.456;2023-03-05T06:14:51;119.75;;;62.13;;
50249;SDS011;36133;42.522;27.456;2023-03-05T06:17:18;125.70;;;61.95;;
50249;SDS011;36133;42.522;27.456;2023-03-05T06:19:44;115.65;;;60.03;;
50249;SDS011;36133;42.522;27.456;2023-03-05T06:22:09;120.35;;;60.50;;
50249;SDS011;36133;42.522;27.456;2023-03-05T06:24:35;107.57;;;58.65;;
50249;SDS011;36133;42.522;27.456;2023-03-05T06:27:02;109.07;;;53.92;;
50249;SDS011;36133;42.522;27.456;2023-03-05T06:29:28;100.22;;;50.42;;
50249;SDS011;36133;42.522;27.456;2023-03-05T06:31:54;94.82;;;47.70;;
50249;SDS011;36133;42.522;27.456;2023-03-05T06:34:19;98.85;;;49.20;;
50249;SDS011;36133;42.522;27.456;2023-03-05T06:36:45;90.13;;;45.72;;
50249;SDS011;36133;42.522;27.456;2023-03-05T06:39:10;90.30;;;46.00;;
50249;SDS011;36133;42.522;27.456;2023-03-05T06:41:36;89.30;;;44.58;;
50249;SDS011;36133;42.522;27.456;2023-03-05T06:44:01;86.03;;;45.25;;
50249;SDS011;36133;42.522;27.456;2023-03-05T06:46:31;81.15;;;42.42;;
50249;SDS011;36133;42.522;27.456;2023-03-05T06:48:59;76.57;;;41.72;;
50249;SDS011;36133;42.522;27.456;2023-03-05T06:51:36;75.28;;;40.08;;
50249;SDS011;36133;42.522;27.456;2023-03-05T06:54:04;74.93;;;42.20;;
50249;SDS011;36133;42.522;27.456;2023-03-05T06:56:35;73.78;;;41.10;;
50249;SDS011;36133;42.522;27.456;2023-03-05T06:59:01;72.82;;;40.28;;
50249;SDS011;36133;42.522;27.456;2023-03-05T07:01:27;68.75;;;40.30;;
50249;SDS011;36133;42.522;27.456;2023-03-05T07:03:53;76.20;;;43.58;;
50249;SDS011;36133;42.522;27.456;2023-03-05T07:06:20;73.97;;;40.42;;
50249;SDS011;36133;42.522;27.456;2023-03-05T07:08:46;65.55;;;40.05;;
50249;SDS011;36133;42.522;27.456;2023-03-05T07:11:13;83.18;;;47.90;;
50249;SDS011;36133;42.522;27.456;2023-03-05T07:13:41;68.25;;;38.67;;
50249;SDS011;36133;42.522;27.456;2023-03-05T07:16:08;66.38;;;40.40;;
50249;SDS011;36133;42.522;27.456;2023-03-05T07:18:35;72.50;;;43.10;;
50249;SDS011;36133;42.522;27.456;2023-03-05T07:21:04;69.97;;;39.72;;
50249;SDS011;36133;42.522;27.456;2023-03-05T07:23:31;70.90;;;38.15;;
50249;SDS011;36133;42.522;27.456;2023-03-05T07:26:04;60.80;;;36.78;;
50249;SDS011;36133;42.522;27.456;2023-03-05T07:28:31;65.93;;;40.25;;
50249;SDS011;36133;42.522;27.456;2023-03-05T07:30:58;67.13;;;41.00;;
50249;SDS011;36133;42.522;27.456;2023-03-05T07:33:29;69.43;;;37.83;;
50249;SDS011;36133;42.522;27.456;2023-03-05T07:35:56;59.95;;;36.50;;
50249;SDS011;36133;42.522;27.456;2023-03-05T07:38:22;57.25;;;34.60;;
50249;SDS011;36133;42.522;27.456;2023-03-05T07:40:48;57.78;;;33.13;;
50249;SDS011;36133;42.522;27.456;2023-03-05T07:43:14;53.25;;;32.08;;
50249;SDS011;36133;42.522;27.456;2023-03-05T07:45:41;58.80;;;34.05;;
50249;SDS011;36133;42.522;27.456;2023-03-05T07:48:11;50.40;;;32.22;;
50249;SDS011;36133;42.522;27.456;2023-03-05T07:50:39;53.08;;;31.73;;
50249;SDS011;36133;42.522;27.456;2023-03-05T07:53:05;52.58;;;30.35;;
50249;SDS011;36133;42.522;27.456;2023-03-05T07:55:31;47.92;;;30.00;;
50249;SDS011;36133;42.522;27.456;2023-03-05T07:57:57;47.03;;;29.73;;
50249;SDS011;36133;42.522;27.456;2023-03-05T08:00:23;52.95;;;29.42;;
50249;SDS011;36133;42.522;27.456;2023-03-05T08:02:49;46.22;;;29.63;;
50249;SDS011;36133;42.522;27.456;2023-03-05T08:05:15;50.53;;;31.25;;
50249;SDS011;36133;42.522;27.456;2023-03-05T08:07:40;55.83;;;32.80;;
50249;SDS011;36133;42.522;27.456;2023-03-05T08:10:06;54.58;;;32.75;;
50249;SDS011;36133;42.522;27.456;2023-03-05T08:12:33;47.75;;;31.65;;
50249;SDS011;36133;42.522;27.456;2023-03-05T08:14:59;56.58;;;32.10;;
50249;SDS011;36133;42.522;27.456;2023-03-05T08:17:25;54.78;;;32.63;;
50249;SDS011;36133;42.522;27.456;2023-03-05T08:19:51;48.60;;;31.40;;
50249;SDS011;36133;42.522;27.456;2023-03-05T08:22:18;49.67;;;32.28;;
50249;SDS011;36133;42.522;27.456;2023-03-05T08:24:45;51.13;;;33.00;;
50249;SDS011;36133;42.522;27.456;2023-03-05T08:27:11;48.35;;;31.88;;
50249;SDS011;36133;42.522;27.456;2023-03-05T08:29:36;50.65;;;31.05;;
50249;SDS011;36133;42.522;27.456;2023-03-05T08:32:02;49.63;;;31.27;;
50249;SDS011;36133;42.522;27.456;2023-03-05T08:34:28;53.45;;;31.65;;
50249;SDS011;36133;42.522;27.456;2023-03-05T08:36:53;46.83;;;31.23;;
50249;SDS011;36133;42.522;27.456;2023-03-05T08:39:19;53.55;;;30.33;;
50249;SDS011;36133;42.522;27.456;2023-03-05T08:41:45;45.17;;;28.75;;
50249;SDS011;36133;42.522;27.456;2023-03-05T08:44:13;45.95;;;29.42;;
50249;SDS011;36133;42.522;27.456;2023-03-05T08:46:39;45.22;;;28.05;;
50249;SDS011;36133;42.522;27.456;2023-03-05T08:49:04;48.80;;;29.35;;
50249;SDS011;36133;42.522;27.456;2023-03-05T08:51:31;48.40;;;28.95;;
50249;SDS011;36133;42.522;27.456;2023-03-05T08:53:57;45.03;;;27.20;;
50249;SDS011;36133;42.522;27.456;2023-03-05T08:56:24;44.60;;;27.13;;
50249;SDS011;36133;42.522;27.456;2023-03-05T08:58:51;44.30;;;28.13;;
50249;SDS011;36133;42.522;27.456;2023-03-05T09:01:17;40.63;;;27.27;;
50249;SDS011;36133;42.522;27.456;2023-03-05T09:03:43;41.75;;;26.17;;
50249;SDS011;36133;42.522;27.456;2023-03-05T09:06:09;41.42;;;28.70;;
50249;SDS011;36133;42.522;27.456;2023-03-05T09:08:36;53.17;;;31.33;;
50249;SDS011;36133;42.522;27.456;2023-03-05T09:11:03;47.17;;;30.55;;
50249;SDS011;36133;42.522;27.456;2023-03-05T09:13:29;49.47;;;28.17;;
50249;SDS011;36133;42.522;27.456;2023-03-05T09:15:57;47.55;;;26.85;;
50249;SDS011;36133;42.522;27.456;2023-03-05T09:18:24;45.58;;;28.38;;
50249;SDS011;36133;42.522;27.456;2023-03-05T09:20:50;57.28;;;36.20;;
50249;SDS011;36133;42.522;27.456;2023-03-05T09:23:15;51.95;;;33.55;;
50249;SDS011;36133;42.522;27.456;2023-03-05T09:25:41;50.95;;;34.20;;
50249;SDS011;36133;42.522;27.456;2023-03-05T09:28:07;41.90;;;27.83;;
50249;SDS011;36133;42.522;27.456;2023-03-05T09:30:33;45.60;;;29.67;;
50249;SDS011;36133;42.522;27.456;2023-03-05T09:33:02;49.53;;;29.00;;
50249;SDS011;36133;42.522;27.456;2023-03-05T09:35:28;45.80;;;29.52;;
50249;SDS011;36133;42.522;27.456;2023-03-05T09:37:54;39.38;;;23.88;;
50249;SDS011;36133;42.522;27.456;2023-03-05T09:40:20;41.50;;;24.70;;
50249;SDS011;36133;42.522;27.456;2023-03-05T09:48:16;39.67;;;25.83;;
50249;SDS011;36133;42.522;27.456;2023-03-05T09:56:13;44.92;;;25.90;;
50249;SDS011;36133;42.522;27.456;2023-03-05T10:09:42;37.78;;;23.70;;
50249;SDS011;36133;42.522;27.456;2023-03-05T10:12:35;42.33;;;24.98;;
50249;SDS011;36133;42.522;27.456;2023-03-05T10:20:43;40.88;;;25.58;;
50249;SDS011;36133;42.522;27.456;2023-03-05T10:23:35;51.03;;;28.52;;
50249;SDS011;36133;42.522;27.456;2023-03-05T10:39:48;44.92;;;25.77;;
50249;SDS011;36133;42.522;27.456;2023-03-05T10:45:28;46.95;;;24.88;;
50249;SDS011;36133;42.522;27.456;2023-03-05T10:50:41;43.10;;;25.33;;
50249;SDS011;36133;42.522;27.456;2023-03-05T10:56:08;48.78;;;27.95;;
50249;SDS011;36133;42.522;27.456;2023-03-05T10:58:36;43.95;;;27.48;;
50249;SDS011;36133;42.522;27.456;2023-03-05T11:01:03;48.55;;;27.73;;
50249;SDS011;36133;42.522;27.456;2023-03-05T11:03:46;46.13;;;25.98;;
50249;SDS011;36133;42.522;27.456;2023-03-05T11:09:28;46.70;;;25.83;;
50249;SDS011;36133;42.522;27.456;2023-03-05T11:14:45;39.63;;;23.10;;
50249;SDS011;36133;42.522;27.456;2023-03-05T11:20:19;41.55;;;23.90;;
50249;SDS011;36133;42.522;27.456;2023-03-05T11:23:10;42.63;;;23.25;;
50249;SDS011;36133;42.522;27.456;2023-03-05T11:28:30;32.72;;;19.48;;
50249;SDS011;36133;42.522;27.456;2023-03-05T11:33:52;55.00;;;29.42;;
50249;SDS011;36133;42.522;27.456;2023-03-05T11:36:32;50.30;;;26.85;;
50249;SDS011;36133;42.522;27.456;2023-03-05T11:41:39;41.20;;;24.00;;
50249;SDS011;36133;42.522;27.456;2023-03-05T11:44:12;42.80;;;23.58;;
50249;SDS011;36133;42.522;27.456;2023-03-05T11:46:42;38.72;;;22.20;;
50249;SDS011;36133;42.522;27.456;2023-03-05T11:49:12;36.58;;;19.83;;
50249;SDS011;36133;42.522;27.456;2023-03-05T11:54:51;34.60;;;20.13;;
50249;SDS011;36133;42.522;27.456;2023-03-05T12:00:16;33.88;;;18.88;;
50249;SDS011;36133;42.522;27.456;2023-03-05T12:02:49;37.00;;;18.02;;
50249;SDS011;36133;42.522;27.456;2023-03-05T12:05:18;28.45;;;17.70;;
50249;SDS011;36133;42.522;27.456;2023-03-05T12:07:46;28.20;;;17.13;;
50249;SDS011;36133;42.522;27.456;2023-03-05T12:10:20;28.45;;;16.35;;
50249;SDS011;36133;42.522;27.456;2023-03-05T12:12:54;28.70;;;15.73;;
50249;SDS011;36133;42.522;27.456;2023-03-05T12:18:32;30.00;;;17.92;;
50249;SDS011;36133;42.522;27.456;2023-03-05T12:21:41;33.92;;;16.98;;
50249;SDS011;36133;42.522;27.456;2023-03-05T12:42:45;25.92;;;14.15;;
50249;SDS011;36133;42.522;27.456;2023-03-05T12:47:47;31.10;;;17.00;;
50249;SDS011;36133;42.522;27.456;2023-03-05T12:58:12;37.60;;;23.30;;
50249;SDS011;36133;42.522;27.456;2023-03-05T13:00:42;38.85;;;23.83;;
50249;SDS011;36133;42.522;27.456;2023-03-05T13:03:19;45.20;;;26.42;;
50249;SDS011;36133;42.522;27.456;2023-03-05T13:05:52;43.10;;;24.50;;
50249;SDS011;36133;42.522;27.456;2023-03-05T13:08:24;36.22;;;21.85;;
50249;SDS011;36133;42.522;27.456;2023-03-05T13:13:34;42.80;;;24.15;;
50249;SDS011;36133;42.522;27.456;2023-03-05T13:16:02;45.17;;;23.38;;
50249;SDS011;36133;42.522;27.456;2023-03-05T13:18:29;39.70;;;23.63;;
50249;SDS011;36133;42.522;27.456;2023-03-05T13:21:00;37.00;;;21.20;;
50249;SDS011;36133;42.522;27.456;2023-03-05T13:23:37;40.05;;;22.80;;
50249;SDS011;36133;42.522;27.456;2023-03-05T13:26:12;37.17;;;22.83;;
50249;SDS011;36133;42.522;27.456;2023-03-05T13:28:42;35.60;;;22.55;;
50249;SDS011;36133;42.522;27.456;2023-03-05T13:31:28;41.67;;;23.88;;
50249;SDS011;36133;42.522;27.456;2023-03-05T13:33:55;39.83;;;22.00;;
50249;SDS011;36133;42.522;27.456;2023-03-05T13:38:55;39.70;;;22.75;;
50249;SDS011;36133;42.522;27.456;2023-03-05T13:46:23;41.25;;;22.55;;
50249;SDS011;36133;42.522;27.456;2023-03-05T13:48:54;41.88;;;23.48;;
50249;SDS011;36133;42.522;27.456;2023-03-05T13:51:20;43.90;;;23.35;;
50249;SDS011;36133;42.522;27.456;2023-03-05T13:53:46;45.85;;;24.08;;
50249;SDS011;36133;42.522;27.456;2023-03-05T13:56:15;38.13;;;21.17;;
50249;SDS011;36133;42.522;27.456;2023-03-05T13:58:55;37.10;;;22.30;;
50249;SDS011;36133;42.522;27.456;2023-03-05T14:01:39;50.75;;;24.83;;
50249;SDS011;36133;42.522;27.456;2023-03-05T14:06:57;48.70;;;25.65;;
50249;SDS011;36133;42.522;27.456;2023-03-05T14:09:42;44.03;;;25.15;;
50249;SDS011;36133;42.522;27.456;2023-03-05T14:14:54;50.67;;;25.35;;
50249;SDS011;36133;42.522;27.456;2023-03-05T14:22:42;47.47;;;27.55;;
50249;SDS011;36133;42.522;27.456;2023-03-05T14:25:29;47.72;;;27.67;;
50249;SDS011;36133;42.522;27.456;2023-03-05T14:30:45;53.67;;;30.45;;
50249;SDS011;36133;42.522;27.456;2023-03-05T14:33:12;52.95;;;30.58;;
50249;SDS011;36133;42.522;27.456;2023-03-05T14:35:48;53.90;;;31.30;;
50249;SDS011;36133;42.522;27.456;2023-03-05T14:38:20;53.55;;;30.90;;
50249;SDS011;36133;42.522;27.456;2023-03-05T14:40:52;55.63;;;28.73;;
50249;SDS011;36133;42.522;27.456;2023-03-05T14:43:19;46.22;;;27.92;;
50249;SDS011;36133;42.522;27.456;2023-03-05T14:45:45;51.72;;;29.02;;
50249;SDS011;36133;42.522;27.456;2023-03-05T14:48:12;45.28;;;26.85;;
50249;SDS011;36133;42.522;27.456;2023-03-05T14:50:52;49.88;;;26.55;;
50249;SDS011;36133;42.522;27.456;2023-03-05T14:53:25;47.78;;;25.25;;
50249;SDS011;36133;42.522;27.456;2023-03-05T14:55:53;50.33;;;25.70;;
50249;SDS011;36133;42.522;27.456;2023-03-05T14:58:21;45.45;;;24.63;;
50249;SDS011;36133;42.522;27.456;2023-03-05T15:00:50;41.78;;;22.67;;
50249;SDS011;36133;42.522;27.456;2023-03-05T15:03:19;48.67;;;27.25;;
50249;SDS011;36133;42.522;27.456;2023-03-05T15:05:47;42.63;;;24.55;;
50249;SDS011;36133;42.522;27.456;2023-03-05T15:08:22;43.88;;;25.58;;
50249;SDS011;36133;42.522;27.456;2023-03-05T15:10:51;53.05;;;27.23;;
50249;SDS011;36133;42.522;27.456;2023-03-05T15:13:17;53.80;;;26.40;;
50249;SDS011;36133;42.522;27.456;2023-03-05T15:15:44;52.00;;;26.90;;
50249;SDS011;36133;42.522;27.456;2023-03-05T15:18:15;51.15;;;25.83;;
50249;SDS011;36133;42.522;27.456;2023-03-05T15:20:43;50.53;;;27.45;;
50249;SDS011;36133;42.522;27.456;2023-03-05T15:23:09;51.22;;;25.55;;
50249;SDS011;36133;42.522;27.456;2023-03-05T15:25:37;51.42;;;26.70;;
50249;SDS011;36133;42.522;27.456;2023-03-05T15:28:02;46.58;;;26.48;;
50249;SDS011;36133;42.522;27.456;2023-03-05T15:30:30;55.88;;;27.65;;
50249;SDS011;36133;42.522;27.456;2023-03-05T15:33:02;52.85;;;28.35;;
50249;SDS011;36133;42.522;27.456;2023-03-05T15:35:30;47.40;;;27.25;;
50249;SDS011;36133;42.522;27.456;2023-03-05T15:37:56;53.05;;;26.90;;
50249;SDS011;36133;42.522;27.456;2023-03-05T15:40:23;47.92;;;26.48;;
50249;SDS011;36133;42.522;27.456;2023-03-05T15:42:53;50.38;;;27.17;;
50249;SDS011;36133;42.522;27.456;2023-03-05T15:48:53;48.13;;;27.13;;
50249;SDS011;36133;42.522;27.456;2023-03-05T15:54:31;51.97;;;27.58;;
50249;SDS011;36133;42.522;27.456;2023-03-05T15:56:59;54.08;;;27.05;;
50249;SDS011;36133;42.522;27.456;2023-03-05T15:59:25;54.55;;;26.48;;
50249;SDS011;36133;42.522;27.456;2023-03-05T16:01:51;53.75;;;27.23;;
50249;SDS011;36133;42.522;27.456;2023-03-05T16:04:17;53.63;;;27.85;;
50249;SDS011;36133;42.522;27.456;2023-03-05T16:06:45;50.38;;;26.83;;
50249;SDS011;36133;42.522;27.456;2023-03-05T16:09:13;51.58;;;28.02;;
50249;SDS011;36133;42.522;27.456;2023-03-05T16:11:40;47.13;;;26.13;;
50249;SDS011;36133;42.522;27.456;2023-03-05T16:14:12;55.15;;;27.27;;
50249;SDS011;36133;42.522;27.456;2023-03-05T16:16:41;53.38;;;24.75;;
50249;SDS011;36133;42.522;27.456;2023-03-05T16:19:08;48.33;;;25.38;;
50249;SDS011;36133;42.522;27.456;2023-03-05T16:21:35;60.88;;;27.17;;
50249;SDS011;36133;42.522;27.456;2023-03-05T16:24:00;56.35;;;27.58;;
50249;SDS011;36133;42.522;27.456;2023-03-05T16:26:26;47.28;;;26.50;;
50249;SDS011;36133;42.522;27.456;2023-03-05T16:28:52;51.72;;;26.08;;